Annandale, Minnesota
Current Conditions -  °F | °C
As of 10:55 PM on Saturday 22 Nov 2014 (Local Time) from KMGG Reporting Station
Moderate Fog Moderate Fog  
Wind Chill:   Ceiling: 200
Heat Index:   Visibility: 0.5mi
Dew Point:   Wind: 7mph
Humidity: 100%   Direction: 130°SE
Pressure: 29.48"   Gusts: NA
Location:  45.26°N, 94.12°W
Report Text: KMGG 230455Z AUTO 13006KT 1/2SM FG OVC002 03/03 A2948 RMK AO2 T00300030
Loading
Personal Weather Stations






























Interactive Weather Map New forecast layout! Learn more

10-Day Weather Forecast

Advertisements
Track Severe Weather on mobile